Domov               UVHVVR             MKGP            O straneh              
ZDRAVSTVENO VARSTVO RASTLIN
  MREŽA AGROMET. POSTAJ
 ► PROGNOSTIČNA OBVESTILA
AGROMETEOROLOŠKI PODATKI -
ARSO
OBVLADOVANJE TVEGANJ ZARADI
NEUGODNIH VREMENSKIH RAZMER
  ► NARAVNE NESREČE
  ► SUŠA/MOČA
  ► NAMAKANJE
  ► ŽLED (gozdarstvo)
KARTOGRAFSKI PRIKAZI
SPLETNE POVEZAVE
PROJEKTI IN PUBLIKACIJE

AGROMETEOROLOŠKA MREŽA: VREMENSKE POSTAJE IN FENOLOŠKA OPAZOVANJA

Pregled podatkov za lokacijo Kamnik, meteorološka postaja 41388

Pregled senzorjev na lokaciji

ID Ime Zadnja
vrednost
Datum
zadnje
spremembe
Tip
senzorja
4235 Omočenost lista (U) 0 U 26.3.2019 18:30 A730WET
4236 Padavine (mm) 0 mm 26.3.2019 18:30 Generic 0.2 mm
4238 Relativna vlaga 2 m (% RH) 35,68 % RH 26.3.2019 18:30 Generic 0 - 100 %
4237 Temperatura 2 m (°C) 10,82 °C 26.3.2019 18:30 Generic -40 - +60 °C

Pregled podatkov zadnjih 24 ur

Zap.
št.
Datum in čas Kamnik
Omočenost
lista
Padavine Relativna
vlaga
2
m
Temperatura
2
m
1 26.3.2019 17:30 0 0 35,7 10,8
2 26.3.2019 17:00 0 0 35,7 11,2
3 26.3.2019 16:30 0 0 36,5 11,1
4 26.3.2019 16:00 0 0 38 11,3
5 26.3.2019 15:30 0 0 38,8 11,2
6 26.3.2019 15:00 0 0 40,1 11,1
7 26.3.2019 14:30 0 0 41 11
8 26.3.2019 14:00 0 0 42,4 10,8
9 26.3.2019 13:30 0 0 42,6 10,6
10 26.3.2019 13:00 0 0 43,4 10,3
11 26.3.2019 12:30 0 0 40,9 10
12 26.3.2019 12:00 0 0 42,1 9,6
13 26.3.2019 11:30 0 0 42,3 9,2
14 26.3.2019 11:00 0 0 42,1 8,8
15 26.3.2019 10:30 0 0 43,4 8,7
16 26.3.2019 10:00 0 0 51 8,5
17 26.3.2019 09:30 0 0,2 60,5 7,6
18 26.3.2019 09:00 0 0 77,5 5,9
19 26.3.2019 08:30 9 0 88,7 4,4
20 26.3.2019 08:00 9 0 93,1 4
21 26.3.2019 07:30 9 0 99,6 2,5
22 26.3.2019 07:00 8 0 99,9 1,3
23 26.3.2019 06:30 8 0 99,9 1,6
24 26.3.2019 06:00 8 0 99,8 1,8
25 26.3.2019 05:30 8 0 99,1 1,8
26 26.3.2019 05:00 9 0 98,3 2,2
27 26.3.2019 04:30 9 0 99 2,4
28 26.3.2019 04:00 9 0 98,4 2,5
29 26.3.2019 03:30 10 0 98,4 2,7
30 26.3.2019 03:00 10 0 98,1 2,7
31 26.3.2019 02:30 10 0 97,9 2,7
32 26.3.2019 02:00 10 0 96,7 2,9
33 26.3.2019 01:30 10 0 96,8 3
34 26.3.2019 01:00 10 0 94,9 3,3
35 26.3.2019 00:30 10 0 93,2 3,5
36 26.3.2019 00:00 10 0 90,8 3,7
37 25.3.2019 23:30 10 0 93,9 3,6
38 25.3.2019 23:00 9 0,2 95,6 3,5
39 25.3.2019 22:30 9 0,2 93,7 3,6
40 25.3.2019 22:00 7 0,4 93,4 3,8
41 25.3.2019 21:30 9 0,2 90,2 4,2
42 25.3.2019 21:00 9 0,2 85 4,5
43 25.3.2019 20:30 9 0,2 94,4 4,5
44 25.3.2019 20:00 9 0,4 98,9 4,6
45 25.3.2019 19:30 10 1,6 97,6 5,1
46 25.3.2019 19:00 10 2 93,3 5,6
47 25.3.2019 18:30 10 0,8 83,1 6,8
48 25.3.2019 18:00 10 1 81,6 7,9
© 2011 Ministrstvo za kmetijstvo, gozdarstvo in prehrano. Vse pravice pridržane.